Time;durP1;ratioP1;P1;durP2;ratioP2;P2;SDS_P1;SDS_P2;PMS_P1;PMS_P2;Temp;Humidity;BMP_temperature;BMP_pressure;BME280_temperature;BME280_humidity;BME280_pressure;Samples;Min_cycle;Max_cycle;Signal;HPM_P1;HPM_P2
2023/08/05 00:02:40;;;;;;;9.07;5.67;;;;;;;19.11;53.23;99721.84;10537550;28;20340;-71
2023/08/05 00:07:42;;;;;;;7.77;5.67;;;;;;;19.10;53.15;99746.50;10534669;28;20238;-72
2023/08/05 00:12:43;;;;;;;6.83;5.60;;;;;;;18.93;53.48;99749.16;10538139;28;20230;-71
2023/08/05 00:17:45;;;;;;;10.10;6.37;;;;;;;18.38;54.51;99786.47;10539756;28;20230;-71
2023/08/05 00:22:47;;;;;;;8.53;6.00;;;;;;;19.05;53.14;99760.78;10542974;28;20221;-71
2023/08/05 00:27:48;;;;;;;9.27;6.27;;;;;;;19.53;53.12;99688.09;10543597;28;20229;-71
2023/08/05 00:32:50;;;;;;;8.77;6.40;;;;;;;19.36;52.66;99737.75;10532246;28;20329;-71
2023/08/05 00:37:52;;;;;;;8.70;7.27;;;;;;;18.61;54.02;99780.22;10541497;28;20233;-71
2023/08/05 00:42:54;;;;;;;13.17;8.47;;;;;;;18.99;53.40;99746.28;10538413;28;20234;-71
2023/08/05 00:47:56;;;;;;;11.90;8.50;;;;;;;18.41;54.01;99807.66;10540300;28;20407;-71
2023/08/05 00:52:58;;;;;;;11.33;9.00;;;;;;;18.68;54.41;99725.88;10534691;28;20226;-71
2023/08/05 00:58:00;;;;;;;10.20;8.17;;;;;;;18.54;54.51;99732.59;10539748;28;20258;-70
2023/08/05 01:03:02;;;;;;;10.60;8.53;;;;;;;17.71;55.83;99779.47;10535723;28;20253;-71
2023/08/05 01:08:06;;;;;;;14.20;8.35;;;;;;;19.69;52.43;99662.09;10539701;28;20233;-71
2023/08/05 01:13:07;;;;;;;12.43;9.67;;;;;;;17.52;56.97;99700.19;10537217;28;20284;-71
2023/08/05 01:18:11;;;;;;;13.20;8.87;;;;;;;19.37;52.74;99681.63;10541489;28;20324;-70
2023/08/05 01:23:35;;;;;;;11.67;9.27;;;;;;;19.72;51.99;99707.69;10539039;28;20701;-69
2023/08/05 01:28:38;;;;;;;13.53;9.17;;;;;;;18.20;54.51;99744.06;10536807;28;20614;-69
2023/08/05 01:33:41;;;;;;;13.73;9.93;;;;;;;17.12;57.07;99767.56;10534057;28;20324;-69
2023/08/05 01:38:43;;;;;;;13.20;9.27;;;;;;;17.50;55.65;99785.38;10539329;28;20852;-69
2023/08/05 01:43:45;;;;;;;12.33;9.53;;;;;;;18.97;53.30;99693.38;10535322;28;20800;-69
2023/08/05 01:48:46;;;;;;;11.83;8.97;;;;;;;17.67;55.92;99734.97;10538820;28;20267;-69
2023/08/05 01:53:48;;;;;;;13.80;9.50;;;;;;;16.78;57.93;99753.63;10537047;28;20308;-69
2023/08/05 01:58:50;;;;;;;12.83;9.23;;;;;;;18.77;53.94;99653.94;10536070;28;20358;-69
2023/08/05 02:03:52;;;;;;;15.23;9.00;;;;;;;18.42;53.97;99721.78;10533550;28;20321;-69
2023/08/05 02:08:54;;;;;;;38.07;9.93;;;;;;;17.39;56.22;99718.53;10535178;28;20234;-69
2023/08/05 02:13:55;;;;;;;29.13;9.90;;;;;;;16.95;57.37;99716.03;10532872;28;20234;-69
2023/08/05 02:18:57;;;;;;;37.83;9.27;;;;;;;17.60;56.38;99661.16;10536403;28;20225;-69
2023/08/05 02:23:59;;;;;;;31.77;9.17;;;;;;;16.55;57.32;99762.41;10538960;28;20832;-69
2023/08/05 02:29:00;;;;;;;15.13;8.00;;;;;;;16.72;57.36;99717.53;10531954;28;20230;-69
2023/08/05 02:34:02;;;;;;;16.07;7.83;;;;;;;18.06;54.71;99646.00;10535544;28;20230;-69
2023/08/05 02:39:04;;;;;;;28.00;8.67;;;;;;;18.13;54.43;99664.00;10529088;28;20726;-69
2023/08/05 02:44:06;;;;;;;14.87;7.97;;;;;;;18.03;54.31;99684.38;10535598;28;20230;-69
2023/08/05 02:49:08;;;;;;;13.87;7.40;;;;;;;17.78;54.64;99716.25;10505899;28;20724;-69
2023/08/05 02:54:10;;;;;;;14.83;7.93;;;;;;;17.64;55.21;99684.00;10513837;28;20666;-69
2023/08/05 02:59:12;;;;;;;17.60;8.87;;;;;;;17.88;54.82;99667.78;10511014;28;20222;-69
2023/08/05 03:04:14;;;;;;;22.80;8.30;;;;;;;17.90;54.38;99665.69;10508603;28;20233;-69
2023/08/05 03:09:15;;;;;;;20.83;7.47;;;;;;;17.52;55.17;99715.63;10506079;28;20230;-68
2023/08/05 03:14:17;;;;;;;19.53;7.87;;;;;;;17.81;54.89;99672.50;10509323;28;20304;-68
2023/08/05 03:19:19;;;;;;;21.93;7.50;;;;;;;18.45;53.42;99677.97;10509033;28;20613;-69
2023/08/05 03:24:21;;;;;;;20.90;8.07;;;;;;;18.08;54.50;99668.25;10507613;28;20299;-68
2023/08/05 03:29:23;;;;;;;40.53;8.27;;;;;;;17.66;55.59;99697.31;10505462;28;20203;-69
2023/08/05 03:34:24;;;;;;;33.07;7.20;;;;;;;16.96;56.19;99742.00;10508448;28;20242;-69
2023/08/05 03:39:26;;;;;;;14.30;6.17;;;;;;;18.14;53.98;99673.78;10505295;28;20211;-69
2023/08/05 03:44:28;;;;;;;16.90;6.37;;;;;;;18.30;53.97;99658.69;10506855;28;20222;-69
2023/08/05 03:49:29;;;;;;;17.83;7.40;;;;;;;17.22;54.90;99777.84;10510870;28;20222;-69
2023/08/05 03:54:31;;;;;;;15.37;6.33;;;;;;;16.71;56.25;99752.88;10514107;28;20231;-68
2023/08/05 03:59:33;;;;;;;16.80;6.53;;;;;;;17.13;56.35;99669.19;10512953;28;20290;-69
2023/08/05 04:04:34;;;;;;;15.53;6.53;;;;;;;18.13;53.42;99710.03;10510983;28;20341;-69
2023/08/05 04:09:37;;;;;;;15.77;6.53;;;;;;;18.15;53.53;99729.56;10513364;28;20336;-69
2023/08/05 04:14:39;;;;;;;11.20;6.27;;;;;;;17.79;53.87;99761.22;10511193;28;20230;-68
2023/08/05 04:19:45;;;;;;;17.13;6.30;;;;;;;17.58;54.00;99789.59;10513937;28;20281;-69
2023/08/05 04:24:46;;;;;;;20.67;5.97;;;;;;;17.60;53.33;99801.84;10510316;28;20283;-69
2023/08/05 04:29:49;;;;;;;25.80;5.93;;;;;;;17.12;54.35;99824.34;10514226;28;20359;-69
2023/08/05 04:34:50;;;;;;;14.47;5.37;;;;;;;18.19;52.43;99745.13;10508258;28;20663;-69
2023/08/05 04:39:52;;;;;;;18.03;6.10;;;;;;;17.05;54.87;99826.31;10515357;28;20353;-69
2023/08/05 04:44:55;;;;;;;14.10;5.87;;;;;;;17.47;54.31;99773.09;10558540;27;20295;-70
2023/08/05 04:49:57;;;;;;;26.93;5.50;;;;;;;17.03;54.72;99823.84;10557822;27;20282;-69
2023/08/05 04:55:07;;;;;;;19.67;5.90;;;;;;;16.91;54.07;99853.47;10560033;27;20246;-69
2023/08/05 05:00:10;;;;;;;9.10;5.80;;;;;;;17.22;53.91;99840.03;10556669;27;20775;-69
2023/08/05 05:05:12;;;;;;;23.87;5.80;;;;;;;17.17;54.24;99809.13;10557814;27;20230;-68
2023/08/05 05:10:14;;;;;;;19.77;6.40;;;;;;;16.62;55.40;99830.72;10559676;27;20307;-68
2023/08/05 05:15:16;;;;;;;9.47;6.40;;;;;;;17.38;54.63;99743.91;10559663;27;20282;-68
2023/08/05 05:20:18;;;;;;;7.17;5.90;;;;;;;17.22;54.80;99767.84;10558911;27;20833;-68
2023/08/05 05:25:19;;;;;;;9.27;6.47;;;;;;;18.15;52.64;99741.22;10558283;27;20609;-69
2023/08/05 05:30:21;;;;;;;7.53;5.70;;;;;;;17.81;53.31;99761.81;10561816;27;20226;-68
2023/08/05 05:35:23;;;;;;;8.40;5.53;;;;;;;17.17;54.14;99803.69;10560968;27;20320;-67
2023/08/05 05:40:25;;;;;;;8.00;5.67;;;;;;;17.82;52.72;99787.81;10557424;27;20237;-68
2023/08/05 05:45:28;;;;;;;7.53;4.93;;;;;;;17.36;53.32;99814.50;10560257;27;20325;-68
2023/08/05 05:50:30;;;;;;;8.10;5.20;;;;;;;17.31;53.37;99795.41;10554021;27;20313;-69
2023/08/05 05:55:32;;;;;;;10.67;4.80;;;;;;;17.59;53.42;99769.63;10558295;27;20233;-68
2023/08/05 06:00:37;;;;;;;8.03;5.67;;;;;;;16.96;54.89;99809.59;10534843;27;20222;-68
2023/08/05 06:05:40;;;;;;;6.53;5.00;;;;;;;17.65;53.45;99739.78;10558063;27;20234;-68
2023/08/05 06:10:41;;;;;;;5.07;4.33;;;;;;;17.75;53.07;99760.03;10555400;27;20234;-68
2023/08/05 06:15:43;;;;;;;6.20;4.93;;;;;;;17.48;54.01;99765.84;10557222;27;20240;-68
2023/08/05 06:20:48;;;;;;;7.13;4.77;;;;;;;17.18;54.35;99782.88;10558708;27;20242;-68
2023/08/05 06:25:49;;;;;;;6.10;5.03;;;;;;;17.17;54.14;99776.66;10555383;27;20328;-68
2023/08/05 06:30:51;;;;;;;8.50;4.63;;;;;;;17.41;54.27;99760.53;10554552;27;20261;-68
2023/08/05 06:35:53;;;;;;;8.17;5.33;;;;;;;17.27;54.20;99784.22;10557659;27;20232;-68
2023/08/05 06:40:55;;;;;;;8.47;4.93;;;;;;;16.87;55.21;99791.97;10556293;27;20226;-69
2023/08/05 06:45:57;;;;;;;5.97;4.90;;;;;;;17.73;53.98;99715.09;10554658;27;20393;-68
2023/08/05 06:50:58;;;;;;;8.73;5.00;;;;;;;17.80;53.51;99766.41;10556874;27;20226;-69
2023/08/05 06:56:01;;;;;;;9.53;5.13;;;;;;;17.46;54.54;99766.06;10551057;27;20225;-68
2023/08/05 07:01:03;;;;;;;7.43;5.80;;;;;;;16.83;55.72;99797.00;10556005;27;20226;-69
2023/08/05 07:06:05;;;;;;;6.97;4.40;;;;;;;17.34;54.39;99770.59;10557618;27;20675;-68
2023/08/05 07:11:08;;;;;;;7.20;5.00;;;;;;;18.55;52.25;99680.06;10556313;28;20222;-68
2023/08/05 07:16:09;;;;;;;7.03;4.80;;;;;;;17.24;54.72;99787.41;10552719;28;20314;-68
2023/08/05 07:21:11;;;;;;;6.23;5.03;;;;;;;18.20;53.04;99710.72;10559455;27;20257;-68
2023/08/05 07:26:13;;;;;;;5.40;4.63;;;;;;;17.62;53.79;99769.97;10563644;27;20222;-68
2023/08/05 07:31:16;;;;;;;5.93;4.20;;;;;;;18.70;52.38;99764.41;10562510;27;20777;-68
2023/08/05 07:36:22;;;;;;;7.87;4.67;;;;;;;18.68;52.78;99668.16;10565219;27;20719;-69
2023/08/05 07:41:26;;;;;;;4.97;4.33;;;;;;;17.26;54.72;99801.50;10560171;27;21040;-69
2023/08/05 07:46:30;;;;;;;9.60;5.10;;;;;;;18.41;53.63;99698.50;10566034;27;20317;-68
2023/08/05 07:51:32;;;;;;;7.10;4.80;;;;;;;18.21;54.12;99723.22;10561250;27;20415;-68
2023/08/05 07:56:35;;;;;;;6.20;4.90;;;;;;;18.97;52.70;99653.53;10557551;27;20290;-68
2023/08/05 08:01:42;;;;;;;5.07;4.53;;;;;;;18.21;53.55;99712.38;10557998;27;20230;-68
2023/08/05 08:06:45;;;;;;;7.00;5.37;;;;;;;17.94;54.70;99693.91;10552832;27;20234;-68
2023/08/05 08:11:48;;;;;;;6.63;4.30;;;;;;;18.87;52.28;99645.19;10559381;27;20239;-68
2023/08/05 08:16:50;;;;;;;6.33;4.90;;;;;;;17.80;53.58;99784.50;10559220;27;20222;-68
2023/08/05 08:21:52;;;;;;;5.43;4.40;;;;;;;18.94;52.60;99680.31;10560649;27;20245;-68
2023/08/05 08:26:54;;;;;;;6.10;4.90;;;;;;;18.31;53.24;99731.59;10559407;27;20778;-68
2023/08/05 08:31:56;;;;;;;5.77;4.97;;;;;;;18.26;52.69;99734.16;10558121;27;20233;-68
2023/08/05 08:36:58;;;;;;;6.87;4.77;;;;;;;18.45;53.10;99711.31;10563391;27;20311;-68
2023/08/05 08:41:59;;;;;;;8.57;4.83;;;;;;;18.33;53.05;99734.06;10561148;27;20249;-69
2023/08/05 08:47:01;;;;;;;4.87;4.07;;;;;;;18.76;52.44;99701.09;10559364;27;20229;-69
2023/08/05 08:52:05;;;;;;;5.47;4.10;;;;;;;19.05;51.88;99670.47;10558882;27;20233;-68
2023/08/05 08:57:07;;;;;;;4.70;4.00;;;;;;;17.74;52.86;99786.28;10560721;27;20237;-68
2023/08/05 09:02:12;;;;;;;5.80;4.57;;;;;;;18.67;52.65;99686.28;10558012;27;20234;-68
2023/08/05 09:07:14;;;;;;;5.80;4.30;;;;;;;19.12;51.20;99699.09;10562134;27;20292;-69
2023/08/05 09:12:16;;;;;;;4.70;3.90;;;;;;;19.98;50.09;99624.75;10553992;27;20649;-69
2023/08/05 09:17:18;;;;;;;6.00;3.90;;;;;;;19.71;50.58;99673.50;10557984;27;20280;-72
2023/08/05 09:22:19;;;;;;;5.00;3.80;;;;;;;19.58;50.88;99645.63;10556600;27;20233;-73
2023/08/05 09:27:21;;;;;;;4.70;3.80;;;;;;;19.91;50.43;99651.28;10562111;27;20333;-68
2023/08/05 09:32:23;;;;;;;4.30;3.90;;;;;;;19.74;50.26;99692.84;10557604;27;20237;-69
2023/08/05 09:37:41;;;;;;;5.43;3.70;;;;;;;19.32;49.91;99692.38;10557704;27;20232;-68
2023/08/05 09:42:54;;;;;;;4.23;3.40;;;;;;;20.71;49.35;99602.78;10552660;27;20765;-68
2023/08/05 09:48:04;;;;;;;4.10;3.70;;;;;;;19.96;50.02;99651.34;10559689;27;20261;-69
2023/08/05 09:53:08;;;;;;;5.15;3.80;;;;;;;20.42;49.09;99642.97;10555839;27;20279;-69
2023/08/05 09:58:10;;;;;;;3.70;3.35;;;;;;;20.43;49.24;99650.88;10554692;27;20225;-69
2023/08/05 10:03:13;;;;;;;3.72;3.42;;;;;;;20.67;47.73;99616.06;10553143;27;20256;-68
2023/08/05 10:08:19;;;;;;;3.72;3.25;;;;;;;21.08;48.19;99598.53;10555606;27;20783;-68
2023/08/05 10:13:22;;;;;;;3.10;2.80;;;;;;;21.36;47.16;99598.25;10556435;27;20324;-69
2023/08/05 10:18:25;;;;;;;5.60;3.38;;;;;;;21.89;46.26;99560.16;10555199;27;20311;-68
2023/08/05 10:23:26;;;;;;;4.93;3.03;;;;;;;20.81;48.08;99640.16;10558669;27;20328;-72
2023/08/05 10:28:34;;;;;;;3.08;2.85;;;;;;;21.60;46.58;99616.91;10556510;27;20285;-69
2023/08/05 10:34:11;;;;;;;3.17;2.88;;;;;;;21.15;46.47;99623.63;10555768;27;20241;-70
2023/08/05 10:39:42;;;;;;;6.20;3.03;;;;;;;21.20;46.27;99596.44;10552679;27;20689;-69
2023/08/05 10:44:44;;;;;;;4.05;2.97;;;;;;;21.33;46.22;99606.09;10556323;27;20259;-69
2023/08/05 10:49:46;;;;;;;2.95;2.65;;;;;;;21.31;44.97;99591.94;10557741;27;20237;-68
2023/08/05 10:54:49;;;;;;;3.85;3.05;;;;;;;22.30;46.22;99545.88;10553022;28;20238;-68
2023/08/05 10:59:58;;;;;;;2.95;2.67;;;;;;;21.39;46.02;99551.47;10550351;28;20226;-70
2023/08/05 11:06:24;;;;;;;3.50;2.50;;;;;;;17.73;52.22;99512.16;10474487;27;20844;-68
2023/08/05 11:11:27;;;;;;;4.03;2.95;;;;;;;18.59;51.05;99443.63;10408106;28;20232;-69
2023/08/05 11:16:28;;;;;;;4.15;3.00;;;;;;;18.68;49.62;99465.72;10416292;28;20227;-70
2023/08/05 11:21:30;;;;;;;4.88;3.33;;;;;;;19.83;49.93;99424.44;10466789;28;20710;-71
2023/08/05 11:26:32;;;;;;;2.65;2.45;;;;;;;20.79;48.32;99411.22;10465386;28;20285;-67
2023/08/05 11:31:34;;;;;;;3.30;3.00;;;;;;;20.67;47.80;99404.03;10467779;28;20251;-69
2023/08/05 11:36:35;;;;;;;3.40;3.10;;;;;;;19.53;49.56;99471.84;10461858;28;20224;-69
2023/08/05 11:41:38;;;;;;;3.25;2.67;;;;;;;20.18;47.26;99409.63;10465167;28;20318;-69
2023/08/05 11:46:40;;;;;;;3.35;2.80;;;;;;;21.20;47.03;99381.53;10467292;28;20730;-69
2023/08/05 11:51:58;;;;;;;4.30;2.90;;;;;;;21.54;46.59;99376.53;10464197;28;20223;-67
2023/08/05 11:57:00;;;;;;;2.58;2.38;;;;;;;21.00;47.29;99423.03;10467105;28;20319;-68
2023/08/05 12:02:02;;;;;;;2.92;2.58;;;;;;;20.97;47.16;99435.28;10465957;28;20326;-69
2023/08/05 12:07:04;;;;;;;2.63;2.25;;;;;;;20.18;48.36;99455.81;10465483;28;20306;-69
2023/08/05 12:12:13;;;;;;;4.03;2.70;;;;;;;20.19;47.78;99426.75;10465658;28;20349;-69
2023/08/05 12:17:18;;;;;;;2.90;2.58;;;;;;;21.21;47.25;99370.38;10440890;28;20224;-69
2023/08/05 12:22:19;;;;;;;4.32;2.60;;;;;;;20.40;47.24;99409.53;10437856;28;20341;-68
2023/08/05 12:27:21;;;;;;;3.80;2.67;;;;;;;20.17;47.01;99421.56;10436810;28;21145;-68
2023/08/05 12:32:23;;;;;;;3.13;2.83;;;;;;;18.99;49.10;99428.25;10437829;28;20231;-69
2023/08/05 12:37:25;;;;;;;3.50;2.67;;;;;;;19.81;48.04;99361.47;10437535;28;20240;-69
2023/08/05 12:42:27;;;;;;;5.45;2.92;;;;;;;19.59;49.24;99380.50;10438995;28;20285;-69
2023/08/05 12:47:32;;;;;;;4.28;3.08;;;;;;;19.87;48.88;99346.03;10438920;28;20366;-69
2023/08/05 12:52:34;;;;;;;4.10;3.40;;;;;;;19.77;49.34;99314.16;10439489;28;20244;-71
2023/08/05 12:57:36;;;;;;;4.80;2.90;;;;;;;18.84;49.54;99391.72;10441352;28;20313;-69
2023/08/05 13:02:38;;;;;;;3.60;2.60;;;;;;;19.66;48.64;99340.41;10438102;28;20237;-68
2023/08/05 13:07:39;;;;;;;2.80;2.60;;;;;;;20.52;46.68;99278.91;10440733;28;20235;-69
2023/08/05 13:12:41;;;;;;;3.55;2.33;;;;;;;19.89;46.66;99317.56;10437448;28;20228;-69
2023/08/05 13:17:43;;;;;;;2.80;2.03;;;;;;;20.52;45.71;99300.66;10436480;28;20765;-68
2023/08/05 13:22:45;;;;;;;2.75;2.55;;;;;;;20.12;45.63;99327.22;10443027;28;20232;-67
2023/08/05 13:27:49;;;;;;;2.42;2.22;;;;;;;20.23;45.71;99338.25;10436060;28;20228;-67
2023/08/05 13:32:51;;;;;;;2.75;2.55;;;;;;;20.82;45.10;99296.50;10439289;28;20248;-68
2023/08/05 13:37:53;;;;;;;3.25;2.45;;;;;;;20.19;45.88;99328.94;10442018;28;20746;-67
2023/08/05 13:42:54;;;;;;;3.22;2.55;;;;;;;20.17;45.81;99303.97;10434706;28;20330;-67
2023/08/05 13:47:56;;;;;;;3.25;2.10;;;;;;;20.80;45.34;99274.19;10441060;28;20232;-68
2023/08/05 13:52:58;;;;;;;2.72;2.50;;;;;;;20.53;46.25;99317.78;10439472;28;20313;-70
2023/08/05 13:58:00;;;;;;;2.85;2.65;;;;;;;21.41;46.07;99222.72;10437753;28;20250;-74
2023/08/05 14:03:01;;;;;;;2.55;2.35;;;;;;;21.05;45.79;99225.34;10441270;28;20990;-71
2023/08/05 14:08:03;;;;;;;2.42;2.15;;;;;;;21.23;44.83;99242.25;10437931;28;20261;-72
2023/08/05 14:13:05;;;;;;;3.38;2.15;;;;;;;21.67;44.49;99217.28;10442684;28;20358;-73
2023/08/05 14:18:07;;;;;;;4.22;2.13;;;;;;;21.37;45.14;99226.22;10437977;28;20255;-72
2023/08/05 14:23:09;;;;;;;2.53;2.33;;;;;;;21.41;43.90;99244.47;10439848;28;20255;-71
2023/08/05 14:28:13;;;;;;;3.10;2.30;;;;;;;21.60;44.79;99227.63;10437796;28;20235;-71
2023/08/05 14:33:15;;;;;;;2.40;2.20;;;;;;;21.23;45.87;99224.00;10440159;28;20777;-67
2023/08/05 14:38:18;;;;;;;2.20;2.00;;;;;;;21.07;45.26;99221.53;10445830;28;20693;-68
2023/08/05 14:43:20;;;;;;;2.72;2.20;;;;;;;20.68;45.00;99241.75;10437524;28;20840;-70
2023/08/05 14:48:22;;;;;;;2.30;2.10;;;;;;;20.67;44.70;99208.31;10439151;28;20234;-69
2023/08/05 14:53:23;;;;;;;3.38;2.30;;;;;;;21.29;44.42;99154.09;10434997;28;20323;-69
2023/08/05 14:58:25;;;;;;;2.28;2.08;;;;;;;21.52;44.91;99155.47;10435382;28;20281;-69
2023/08/05 15:03:27;;;;;;;2.47;2.28;;;;;;;21.92;43.63;99139.38;10440558;28;20754;-70
2023/08/05 15:08:29;;;;;;;2.33;1.90;;;;;;;22.08;43.51;99160.06;10432510;28;20311;-69
2023/08/05 15:13:31;;;;;;;1.80;1.70;;;;;;;21.03;40.92;99218.53;10437337;28;20228;-69
2023/08/05 15:18:36;;;;;;;1.95;1.80;;;;;;;21.96;41.42;99151.38;10433333;28;20320;-72
2023/08/05 15:23:38;;;;;;;2.30;1.73;;;;;;;21.70;41.31;99167.72;10435985;28;20240;-73
2023/08/05 15:28:40;;;;;;;1.50;1.40;;;;;;;22.08;42.10;99197.38;10430527;28;20243;-71
2023/08/05 15:33:41;;;;;;;23.95;3.08;;;;;;;20.63;42.38;99198.25;10428719;28;20228;-71
2023/08/05 15:38:43;;;;;;;1.63;1.52;;;;;;;20.86;42.22;99184.22;10430461;28;20606;-71
2023/08/05 15:43:45;;;;;;;1.60;1.50;;;;;;;21.72;41.83;99089.31;10433110;28;20232;-71
2023/08/05 15:48:47;;;;;;;1.90;1.80;;;;;;;21.28;42.02;99157.91;10429793;28;20722;-72
2023/08/05 15:53:48;;;;;;;2.08;1.88;;;;;;;21.09;43.20;99132.31;10441089;28;20810;-69
2023/08/05 15:58:50;;;;;;;1.70;1.60;;;;;;;21.24;42.74;99091.53;10441133;28;20702;-71
2023/08/05 16:03:53;;;;;;;5.50;1.70;;;;;;;21.56;42.83;99074.09;10434569;28;20236;-69
2023/08/05 16:08:55;;;;;;;3.15;2.05;;;;;;;20.28;45.01;99116.31;10442717;28;20235;-75
2023/08/05 16:13:56;;;;;;;2.13;1.90;;;;;;;21.31;43.95;99092.06;10442607;28;20281;-70
2023/08/05 16:18:58;;;;;;;1.83;1.73;;;;;;;20.64;45.03;99088.44;10436866;28;20238;-71
2023/08/05 16:24:01;;;;;;;2.05;1.83;;;;;;;21.66;43.66;99059.66;10438514;28;20298;-69
2023/08/05 16:29:03;;;;;;;3.33;2.08;;;;;;;20.90;44.52;99072.19;10435034;28;20232;-68
2023/08/05 16:34:05;;;;;;;2.40;2.20;;;;;;;21.24;45.13;99012.63;10436631;28;20232;-68
2023/08/05 16:39:07;;;;;;;1.92;1.83;;;;;;;21.20;45.02;99036.03;10435422;28;20227;-67
2023/08/05 16:44:09;;;;;;;2.03;1.90;;;;;;;21.32;43.94;99020.22;10436656;28;20228;-67
2023/08/05 16:49:11;;;;;;;2.45;1.88;;;;;;;20.76;45.16;99061.00;10434405;28;20730;-68
2023/08/05 16:54:13;;;;;;;2.08;1.90;;;;;;;20.90;45.57;99010.47;10431356;28;20226;-70
2023/08/05 16:59:14;;;;;;;3.08;1.98;;;;;;;21.31;45.42;98994.13;10424710;28;21455;-70
2023/08/05 17:04:16;;;;;;;2.60;1.98;;;;;;;20.82;46.84;99016.47;10432244;28;20286;-69
2023/08/05 17:09:19;;;;;;;1.90;1.80;;;;;;;20.66;49.01;98966.69;10436258;28;20228;-69
2023/08/05 17:14:21;;;;;;;2.97;1.90;;;;;;;20.95;47.72;98974.31;10433042;28;20262;-72
2023/08/05 17:19:23;;;;;;;2.30;2.10;;;;;;;20.65;49.42;98974.03;10430159;28;20304;-68
2023/08/05 17:24:24;;;;;;;3.10;2.17;;;;;;;21.04;48.70;98940.84;10435094;28;20330;-70
2023/08/05 17:29:26;;;;;;;2.58;1.92;;;;;;;22.44;46.99;98920.09;10436981;28;20234;-70
2023/08/05 17:34:28;;;;;;;2.30;2.03;;;;;;;21.85;47.46;98989.88;10429821;28;20614;-68
2023/08/05 17:39:31;;;;;;;2.35;2.15;;;;;;;21.93;47.91;98921.22;10432313;28;20235;-72
2023/08/05 17:44:33;;;;;;;2.83;2.50;;;;;;;21.44;47.98;98951.13;10431228;28;20243;-67
2023/08/05 17:49:35;;;;;;;2.60;2.40;;;;;;;21.38;47.42;98953.84;10431752;28;20222;-66
2023/08/05 17:54:37;;;;;;;2.40;2.20;;;;;;;19.98;47.70;99029.28;10430236;28;20277;-67
2023/08/05 17:59:39;;;;;;;4.20;2.17;;;;;;;20.80;46.97;98962.38;10430938;28;20298;-66
2023/08/05 18:04:41;;;;;;;3.65;2.72;;;;;;;21.49;46.43;98946.47;10428422;28;20240;-66
2023/08/05 18:09:43;;;;;;;2.35;2.10;;;;;;;20.88;47.24;99003.69;10433432;28;20232;-67
2023/08/05 18:14:46;;;;;;;2.53;2.30;;;;;;;20.72;48.03;98986.53;10425887;28;20259;-67
2023/08/05 18:19:48;;;;;;;3.05;2.50;;;;;;;16.69;56.25;98942.69;10428334;28;20606;-66
2023/08/05 18:24:50;;;;;;;2.58;2.25;;;;;;;16.24;57.32;98906.53;10432712;28;20340;-68
2023/08/05 18:29:52;;;;;;;2.95;2.72;;;;;;;16.84;56.56;98877.28;10433004;28;20235;-65
2023/08/05 18:34:53;;;;;;;2.57;2.30;;;;;;;17.14;56.17;98958.00;10431214;28;20677;-68
2023/08/05 18:39:55;;;;;;;3.27;2.40;;;;;;;16.45;57.83;98947.44;10430259;28;20792;-67
2023/08/05 18:44:57;;;;;;;3.13;2.53;;;;;;;16.59;57.59;98932.53;10428291;28;20246;-68
2023/08/05 18:49:59;;;;;;;6.13;2.90;;;;;;;17.21;56.35;98902.94;10426740;28;20758;-69
2023/08/05 18:55:00;;;;;;;3.07;2.60;;;;;;;17.46;56.09;98918.66;10425821;28;20293;-67
2023/08/05 19:00:04;;;;;;;3.37;2.80;;;;;;;16.33;57.42;99057.34;10436006;28;20223;-71
2023/08/05 19:05:06;;;;;;;3.13;2.80;;;;;;;16.05;58.81;99002.25;10428300;28;20281;-67
2023/08/05 19:10:08;;;;;;;2.97;2.67;;;;;;;16.87;57.54;98890.28;10420793;28;20649;-65
2023/08/05 19:15:10;;;;;;;2.93;2.60;;;;;;;17.78;54.72;98945.06;10429753;28;20327;-67
2023/08/05 19:20:12;;;;;;;3.40;2.47;;;;;;;17.01;55.66;99033.22;10427226;28;20238;-66
2023/08/05 19:25:14;;;;;;;4.80;2.40;;;;;;;17.76;54.84;99001.31;10429617;28;20231;-66
2023/08/05 19:30:15;;;;;;;2.73;2.53;;;;;;;17.43;54.83;99068.75;10441690;28;20910;-65
2023/08/05 19:35:17;;;;;;;4.13;2.57;;;;;;;19.19;52.12;99067.84;10433520;28;20331;-66
2023/08/05 19:40:19;;;;;;;2.93;2.73;;;;;;;18.63;52.45;99141.28;10433705;28;20612;-67
2023/08/05 19:45:21;;;;;;;3.13;2.70;;;;;;;18.45;53.50;99133.50;10439533;28;20227;-66
2023/08/05 19:50:22;;;;;;;2.72;2.53;;;;;;;18.80;53.22;99053.66;10438047;28;20238;-67
2023/08/05 19:55:28;;;;;;;2.60;2.40;;;;;;;18.48;53.57;99062.56;10429232;28;20803;-67
2023/08/05 20:00:31;;;;;;;5.80;2.70;;;;;;;18.02;54.00;99106.13;10439674;28;20743;-66
2023/08/05 20:05:33;;;;;;;2.67;2.40;;;;;;;17.89;54.88;99085.66;10433535;28;20247;-66
2023/08/05 20:10:35;;;;;;;4.30;2.47;;;;;;;18.14;54.23;99094.38;10440483;28;20229;-68
2023/08/05 20:15:37;;;;;;;4.23;2.30;;;;;;;17.25;56.93;99041.97;10426853;28;20267;-67
2023/08/05 20:20:39;;;;;;;3.50;2.70;;;;;;;17.33;56.22;99071.28;10434724;28;20668;-67
2023/08/05 20:25:41;;;;;;;3.30;2.70;;;;;;;16.93;57.53;99043.31;10435759;28;20313;-67
2023/08/05 20:30:43;;;;;;;3.30;2.67;;;;;;;17.32;56.82;99015.56;10431922;28;20318;-67
2023/08/05 20:35:44;;;;;;;4.17;2.73;;;;;;;16.93;57.60;99040.59;10435316;28;20232;-67
2023/08/05 20:40:46;;;;;;;3.17;2.57;;;;;;;16.62;58.59;99071.69;10433548;28;20221;-67
2023/08/05 20:45:52;;;;;;;2.80;2.60;;;;;;;16.62;58.50;99067.09;10436428;28;20247;-65
2023/08/05 20:50:57;;;;;;;2.80;2.60;;;;;;;17.19;57.56;99022.13;10434705;28;20598;-66
2023/08/05 20:55:59;;;;;;;3.77;3.03;;;;;;;18.03;55.78;99009.50;10429506;28;20232;-65
2023/08/05 21:01:01;;;;;;;3.23;2.80;;;;;;;18.24;54.87;99045.75;10435352;28;20832;-66
2023/08/05 21:06:03;;;;;;;2.90;2.70;;;;;;;17.35;56.92;99093.50;10430453;28;20816;-65
2023/08/05 21:11:07;;;;;;;3.13;2.90;;;;;;;17.76;56.14;99036.50;10431060;28;20862;-66
2023/08/05 21:16:09;;;;;;;3.00;2.60;;;;;;;17.09;57.37;99082.25;10431968;28;20223;-65
2023/08/05 21:21:13;;;;;;;3.37;2.40;;;;;;;17.63;56.40;99033.09;10435892;28;20227;-67
2023/08/05 21:26:15;;;;;;;3.50;2.80;;;;;;;17.82;56.29;99003.84;10430200;28;20348;-67
2023/08/05 21:31:17;;;;;;;3.20;2.90;;;;;;;17.10;56.67;99066.84;10429716;28;20305;-69
2023/08/05 21:36:19;;;;;;;3.40;2.80;;;;;;;17.44;56.19;99012.75;10434673;28;20808;-67
2023/08/05 21:41:21;;;;;;;3.40;3.10;;;;;;;17.26;56.27;99041.72;10432654;28;20255;-67
2023/08/05 21:46:23;;;;;;;3.17;2.60;;;;;;;16.90;56.47;99057.31;10429651;28;20231;-68
2023/08/05 21:51:24;;;;;;;4.40;2.40;;;;;;;17.00;55.68;99051.28;10434499;28;20238;-68
2023/08/05 21:56:26;;;;;;;2.90;2.70;;;;;;;17.34;55.52;98975.56;10436260;28;20744;-69
2023/08/05 22:01:28;;;;;;;2.97;2.50;;;;;;;17.55;54.43;99020.75;10434047;28;20314;-66
2023/08/05 22:06:29;;;;;;;2.60;2.40;;;;;;;17.84;53.80;99015.22;10433086;28;20319;-65
2023/08/05 22:11:31;;;;;;;2.63;2.40;;;;;;;17.30;54.74;99045.56;10434423;28;20245;-64
2023/08/05 22:16:34;;;;;;;2.60;2.40;;;;;;;17.29;54.39;99057.44;10431648;28;20289;-65
2023/08/05 22:21:36;;;;;;;2.40;2.20;;;;;;;17.28;54.90;99009.03;10429457;28;20811;-65
2023/08/05 22:26:38;;;;;;;2.70;2.50;;;;;;;17.23;54.87;99027.88;10436011;28;20238;-66
2023/08/05 22:31:40;;;;;;;2.57;2.13;;;;;;;16.69;55.33;99068.84;10428175;28;20341;-66
2023/08/05 22:36:41;;;;;;;3.13;2.50;;;;;;;17.35;53.62;99056.44;10432773;28;20323;-65
2023/08/05 22:41:43;;;;;;;5.07;2.67;;;;;;;16.76;54.54;99088.41;10431909;28;20231;-66
2023/08/05 22:46:45;;;;;;;2.50;2.30;;;;;;;17.08;53.91;99069.00;10432101;28;20250;-67
2023/08/05 22:51:47;;;;;;;2.60;2.40;;;;;;;17.07;54.60;99032.22;10432345;28;20235;-65
2023/08/05 22:56:49;;;;;;;2.60;2.40;;;;;;;17.16;53.63;99087.50;10430922;28;20626;-67
2023/08/05 23:01:50;;;;;;;4.77;2.30;;;;;;;17.39;53.75;99018.91;10431903;28;20340;-69
2023/08/05 23:06:53;;;;;;;2.93;2.40;;;;;;;17.10;54.69;99046.03;10431918;28;20235;-69
2023/08/05 23:11:54;;;;;;;3.63;2.40;;;;;;;17.18;54.50;99015.91;10427130;28;20389;-69
2023/08/05 23:16:56;;;;;;;3.60;2.57;;;;;;;16.53;56.30;98998.31;10435486;28;20223;-67
2023/08/05 23:21:58;;;;;;;3.00;2.80;;;;;;;17.22;54.81;98962.16;10429712;28;20231;-69
2023/08/05 23:27:00;;;;;;;3.33;2.43;;;;;;;16.30;56.57;98982.22;10430126;28;20239;-68